This is the latest recevied weather packets stored in our database for station/object W0DP. If no packets are shown the sender has not sent any weather packets the latest 10 day(s).
| Time | Temp. | Humidity | Pressure | Rain* | Wind** | Luminosity | Snow |
|---|---|---|---|---|---|---|---|
| 1777508416 | 14.44° C | 39% | 1019.1 hPa | 0 mm | - | - | - |
| 1777507215 | 15° C | 39% | 1019.2 hPa | 0 mm | - | - | - |
| 1777505416 | 16.11° C | 37% | 1019.5 hPa | 0 mm | - | - | - |
| 1777497017 | 16.11° C | 39% | 1019.7 hPa | 0 mm | - | - | - |
| 1777493437 | 15.56° C | 46% | 1020.2 hPa | 0 mm | - | - | - |
| 1777492817 | 15° C | 46% | 1020.3 hPa | 0 mm | - | - | - |
| 1777492217 | 15° C | 48% | 1020.5 hPa | 0 mm | - | - | - |
| 1777489817 | 15° C | 54% | 1020.7 hPa | 0 mm | - | - | - |
| 1777488617 | 14.44° C | 53% | 1021 hPa | 0 mm | - | - | - |
| 1777481416 | 11.67° C | 66% | 1021.8 hPa | 0 mm | - | - | - |
| 1777480856 | 11.11° C | 67% | 1021.8 hPa | 0 mm | - | - | - |
| 1777479016 | 12.78° C | 63% | 1021.7 hPa | 0 mm | - | - | - |
| 1777472416 | 10° C | 75% | 1022 hPa | 0 mm | - | - | - |
| 1777471816 | 8.89° C | 77% | 1022.1 hPa | 0 mm | - | - | - |
| 1777471216 | 8.89° C | 78% | 1022 hPa | 0 mm | - | - | - |
| 1777468816 | 7.78° C | 81% | 1021.9 hPa | 0 mm | - | - | - |
| 1777466436 | 6.67° C | 85% | 1021.5 hPa | 0 mm | - | - | - |
| 1777458037 | 6.67° C | 85% | 1020.6 hPa | 0 mm | - | - | - |
| 1777457457 | 6.67° C | 85% | 1020.6 hPa | 0 mm | - | - | - |
| 1777456215 | 6.67° C | 85% | 1020.5 hPa | 0 mm | - | - | - |
| 1777453217 | 7.22° C | 84% | 1020.4 hPa | 0 mm | - | - | - |
| 1777450217 | 7.78° C | 82% | 1020.4 hPa | 0 mm | - | - | - |
| 1777448457 | 8.33° C | 82% | 1020.2 hPa | 0 mm | - | - | - |
| 1777447217 | 8.33° C | 81% | 1020.4 hPa | 0 mm | - | - | - |
| 1777446017 | 8.33° C | 80% | 1020.1 hPa | 0 mm | - | - | - |
* Rain latest hour (hover to see other rain measurements)
** Current wind speed in m/s (hover to see current wind gust speed)